createdAt,value
2022-08-09T00:02:31.130Z,85.50
2022-08-09T00:05:03.725Z,85.40
2022-08-09T00:07:45.462Z,85.80
2022-08-09T00:10:21.244Z,85.80
2022-08-09T00:12:52.265Z,86.50
2022-08-09T00:15:26.546Z,86.10
2022-08-09T00:18:04.573Z,86.40
2022-08-09T00:20:36.901Z,86.60
2022-08-09T00:23:56.599Z,86.70
2022-08-09T00:25:54.784Z,86.70
2022-08-09T00:28:23.427Z,87.00
2022-08-09T00:30:55.620Z,87.30
2022-08-09T00:33:32.631Z,86.60
2022-08-09T00:36:08.967Z,86.70
2022-08-09T00:38:35.572Z,86.00
2022-08-09T00:41:03.391Z,86.80
2022-08-09T00:44:16.317Z,86.70
2022-08-09T00:46:44.119Z,87.10
2022-08-09T00:49:10.952Z,87.80
2022-08-09T00:51:54.201Z,87.60
2022-08-09T00:54:21.635Z,87.60
2022-08-09T00:56:57.968Z,87.50
2022-08-09T00:59:40.355Z,87.70
2022-08-09T01:06:17.805Z,87.40
2022-08-09T01:09:11.802Z,86.70
2022-08-09T01:11:53.436Z,88.00
2022-08-09T01:14:33.382Z,88.80
2022-08-09T01:17:10.874Z,89.00
2022-08-09T01:19:57.067Z,89.70
2022-08-09T01:24:00.541Z,89.40
2022-08-09T01:26:19.296Z,89.70
2022-08-09T01:28:50.280Z,90.00
2022-08-09T01:31:23.416Z,90.00
2022-08-09T01:34:10.175Z,90.10
2022-08-09T01:36:38.677Z,90.10
2022-08-09T01:39:06.791Z,90.30
2022-08-09T01:41:36.229Z,90.30
2022-08-09T01:44:05.500Z,90.30
2022-08-09T01:46:38.193Z,90.30
2022-08-09T01:49:12.901Z,90.20
2022-08-09T01:51:53.551Z,90.40
2022-08-09T01:54:41.964Z,90.40
2022-08-09T01:57:19.011Z,90.60
2022-08-09T01:59:52.547Z,90.80
2022-08-09T02:02:31.125Z,90.80
2022-08-09T02:05:05.434Z,91.00
2022-08-09T02:08:38.706Z,90.70
2022-08-09T02:10:38.352Z,90.80
2022-08-09T02:13:08.687Z,91.10
2022-08-09T02:15:49.311Z,91.30
2022-08-09T02:18:25.138Z,91.20
2022-08-09T02:20:58.822Z,91.50
2022-08-09T02:23:42.838Z,91.20
2022-08-09T02:26:25.253Z,91.30
2022-08-09T02:29:15.672Z,91.30
2022-08-09T02:31:46.328Z,91.50
2022-08-09T02:34:38.608Z,91.40
2022-08-09T02:37:09.189Z,91.80
2022-08-09T02:39:49.968Z,91.70
2022-08-09T02:42:33.283Z,91.40
2022-08-09T02:45:09.357Z,91.60
2022-08-09T02:47:57.314Z,91.60
2022-08-09T02:50:33.096Z,91.90
2022-08-09T02:53:07.757Z,92.40
2022-08-09T02:55:57.267Z,92.20
2022-08-09T02:58:37.008Z,92.30
2022-08-09T03:01:08.277Z,92.30
2022-08-09T03:04:17.390Z,92.40
2022-08-09T03:06:29.128Z,92.60
2022-08-09T03:09:00.270Z,92.70
2022-08-09T03:11:29.943Z,92.70
2022-08-09T03:14:16.794Z,92.70
2022-08-09T03:16:48.111Z,92.80
2022-08-09T03:19:52.769Z,92.90
2022-08-09T03:22:12.143Z,92.80
2022-08-09T03:24:52.268Z,93.10
2022-08-09T03:27:21.593Z,93.30
2022-08-09T03:29:58.226Z,92.90
2022-08-09T03:32:31.115Z,93.10
2022-08-09T03:34:59.553Z,93.00
2022-08-09T03:37:55.566Z,93.20
2022-08-09T03:40:14.510Z,93.40
2022-08-09T03:42:45.012Z,93.20
2022-08-09T03:45:11.817Z,93.30
2022-08-09T03:47:40.183Z,93.50
2022-08-09T03:50:10.847Z,93.60
2022-08-09T03:52:41.791Z,93.40
2022-08-09T03:55:11.229Z,93.40
2022-08-09T03:57:44.795Z,93.30
2022-08-09T04:00:29.230Z,93.60
2022-08-09T04:02:58.829Z,93.90
2022-08-09T04:05:27.820Z,93.60
2022-08-09T04:07:57.572Z,93.90
2022-08-09T04:10:30.212Z,93.90
2022-08-09T04:13:01.365Z,93.40
2022-08-09T04:16:18.063Z,93.80
2022-08-09T04:18:19.468Z,93.80
2022-08-09T04:20:48.747Z,94.00
2022-08-09T04:23:17.302Z,94.00
2022-08-09T04:25:45.008Z,93.50
2022-08-09T04:28:33.122Z,93.90
2022-08-09T04:31:01.000Z,93.70
2022-08-09T04:33:52.157Z,93.90
2022-08-09T04:36:27.333Z,94.00
2022-08-09T04:38:59.320Z,94.30
2022-08-09T04:41:33.026Z,94.10
2022-08-09T04:44:06.361Z,94.10
2022-08-09T04:46:58.153Z,93.90
2022-08-09T04:49:22.297Z,94.10
2022-08-09T04:52:07.845Z,94.00
2022-08-09T04:54:36.435Z,93.60
2022-08-09T04:57:03.869Z,93.60
2022-08-09T04:59:30.914Z,93.80
2022-08-09T05:01:57.613Z,93.90
2022-08-09T05:04:30.643Z,93.60
2022-08-09T05:06:58.546Z,94.20
2022-08-09T05:09:25.151Z,93.90
2022-08-09T05:12:09.587Z,93.50
2022-08-09T05:14:37.849Z,93.80
2022-08-09T05:17:15.285Z,93.90
2022-08-09T05:19:56.724Z,93.70
2022-08-09T05:22:35.904Z,94.00
2022-08-09T05:25:10.810Z,93.90
2022-08-09T05:27:39.045Z,94.20
2022-08-09T05:30:14.319Z,94.20
2022-08-09T05:32:42.040Z,93.90
2022-08-09T05:35:11.297Z,93.70
2022-08-09T05:37:47.511Z,94.00
2022-08-09T05:40:15.232Z,94.10
2022-08-09T05:42:42.924Z,94.20
2022-08-09T05:45:10.780Z,94.20
2022-08-09T05:47:52.387Z,94.10
2022-08-09T05:50:39.762Z,94.00
2022-08-09T05:53:31.656Z,94.10
2022-08-09T05:55:58.432Z,94.20
2022-08-09T05:58:25.069Z,94.00
2022-08-09T06:00:53.366Z,94.10
2022-08-09T06:03:20.572Z,94.10
2022-08-09T06:05:57.245Z,93.90
2022-08-09T06:08:29.609Z,93.50
2022-08-09T06:10:59.225Z,93.80
2022-08-09T06:13:28.621Z,93.70
2022-08-09T06:16:01.742Z,94.00
2022-08-09T06:18:32.416Z,93.80
2022-08-09T06:20:59.473Z,93.80
2022-08-09T06:23:57.874Z,93.80
2022-08-09T06:26:21.185Z,93.40
2022-08-09T06:29:00.299Z,93.40
2022-08-09T06:31:30.801Z,93.20
2022-08-09T06:33:58.318Z,93.60
2022-08-09T06:36:27.255Z,93.20
2022-08-09T06:38:57.033Z,93.00
2022-08-09T06:41:24.927Z,93.20
2022-08-09T06:44:14.243Z,93.10
2022-08-09T06:46:45.366Z,93.10
2022-08-09T06:49:12.626Z,93.30
2022-08-09T06:51:49.151Z,93.20
2022-08-09T06:54:15.787Z,93.10
2022-08-09T06:56:46.290Z,93.00
2022-08-09T07:00:57.038Z,92.80
2022-08-09T07:02:04.800Z,92.60
2022-08-09T07:04:31.931Z,92.70
2022-08-09T07:07:00.390Z,92.40
2022-08-09T07:09:56.022Z,92.40
2022-08-09T07:12:17.947Z,92.30
2022-08-09T07:14:51.138Z,92.00
2022-08-09T07:17:19.919Z,92.30
2022-08-09T07:19:47.904Z,91.80
2022-08-09T07:22:17.440Z,91.70
2022-08-09T07:24:49.563Z,91.50
2022-08-09T07:27:33.651Z,91.60
2022-08-09T07:30:02.148Z,91.40
2022-08-09T07:32:32.819Z,91.30
2022-08-09T07:35:12.043Z,91.40
2022-08-09T07:37:42.769Z,90.90
2022-08-09T07:40:17.166Z,91.00
2022-08-09T07:43:03.377Z,90.80
2022-08-09T07:45:41.761Z,90.90
2022-08-09T07:48:25.384Z,90.40
2022-08-09T07:51:09.935Z,90.10
2022-08-09T07:54:06.607Z,90.20
2022-08-09T07:56:33.592Z,90.00
2022-08-09T07:59:00.216Z,89.90
2022-08-09T08:01:33.083Z,89.10
2022-08-09T08:04:02.308Z,88.30
2022-08-09T08:06:31.801Z,87.00
2022-08-09T08:09:04.590Z,87.60
2022-08-09T08:12:09.796Z,87.20
2022-08-09T08:14:18.944Z,86.60
2022-08-09T08:17:01.101Z,87.10
2022-08-09T08:19:34.739Z,85.70
2022-08-09T08:22:01.745Z,86.50
2022-08-09T08:24:32.294Z,85.60
2022-08-09T08:27:16.303Z,84.30
2022-08-09T08:29:48.751Z,83.70
2022-08-09T08:32:24.573Z,83.90
2022-08-09T08:34:59.000Z,84.00
2022-08-09T08:37:26.698Z,83.30
2022-08-09T08:40:09.383Z,82.50
2022-08-09T08:42:38.208Z,81.50
2022-08-09T08:45:13.791Z,81.90
2022-08-09T08:47:42.819Z,80.70
2022-08-09T08:50:15.513Z,81.80
2022-08-09T08:52:58.498Z,81.00
2022-08-09T08:55:27.185Z,80.00
2022-08-09T08:57:58.293Z,79.60
2022-08-09T09:00:30.524Z,79.50
2022-08-09T09:03:11.233Z,78.60
2022-08-09T09:05:58.415Z,78.10
2022-08-09T09:08:31.808Z,78.80
2022-08-09T09:11:04.234Z,79.60
2022-08-09T09:13:47.238Z,80.20
2022-08-09T09:16:30.931Z,80.50
2022-08-09T09:22:26.869Z,80.50
2022-08-09T09:26:01.306Z,79.40
2022-08-09T09:28:05.507Z,80.30
2022-08-09T09:30:41.347Z,80.30
2022-08-09T09:33:15.308Z,79.80
2022-08-09T09:36:02.679Z,79.20
2022-08-09T09:38:53.075Z,80.00
2022-08-09T09:41:32.870Z,79.80
2022-08-09T09:44:11.599Z,79.60
2022-08-09T09:46:51.594Z,78.00
2022-08-09T09:49:32.299Z,79.80
2022-08-09T09:52:16.259Z,79.70
2022-08-09T09:55:24.451Z,79.90
2022-08-09T09:58:19.194Z,76.40
2022-08-09T10:00:54.597Z,73.30
2022-08-09T10:03:40.137Z,73.40
2022-08-09T10:06:07.122Z,70.50
2022-08-09T10:08:54.199Z,71.60
2022-08-09T10:12:01.412Z,70.70
2022-08-09T10:14:33.164Z,70.60
2022-08-09T10:17:50.876Z,68.80
2022-08-09T10:19:58.938Z,69.60
2022-08-09T10:22:34.694Z,68.20
2022-08-09T10:25:10.968Z,66.80
2022-08-09T10:27:56.919Z,68.60
2022-08-09T10:34:07.935Z,68.00
2022-08-09T10:36:01.278Z,67.50
2022-08-09T10:38:55.510Z,67.10
2022-08-09T10:41:18.668Z,67.50
2022-08-09T10:43:58.766Z,66.10
2022-08-09T10:46:57.777Z,66.00
2022-08-09T10:49:51.698Z,67.80
2022-08-09T10:52:29.164Z,68.50
2022-08-09T10:55:02.771Z,67.20
2022-08-09T10:57:37.746Z,67.20
2022-08-09T11:00:35.809Z,67.50
2022-08-09T11:03:46.777Z,68.00
2022-08-09T11:06:21.118Z,68.30
2022-08-09T11:08:53.048Z,67.10
2022-08-09T11:11:21.982Z,67.60
2022-08-09T11:14:28.187Z,68.00
2022-08-09T11:16:55.998Z,66.90
2022-08-09T11:20:12.651Z,67.90
2022-08-09T11:22:45.018Z,67.30
2022-08-09T11:25:26.136Z,64.70
2022-08-09T11:28:34.513Z,64.40
2022-08-09T11:31:50.196Z,65.00
2022-08-09T11:34:36.149Z,64.90
2022-08-09T11:37:07.164Z,64.40
2022-08-09T11:40:01.655Z,61.60
2022-08-09T11:42:40.787Z,63.90
2022-08-09T11:45:42.196Z,61.60
2022-08-09T11:48:24.934Z,61.40
2022-08-09T11:52:56.780Z,62.10
2022-08-09T11:54:27.589Z,63.00
2022-08-09T11:58:02.475Z,63.20
2022-08-09T12:00:33.769Z,63.00
2022-08-09T12:03:50.568Z,63.80
2022-08-09T12:05:49.017Z,62.10
2022-08-09T12:08:21.609Z,62.70
2022-08-09T12:10:52.926Z,60.00
2022-08-09T12:14:07.017Z,60.70
2022-08-09T12:16:38.376Z,58.60
2022-08-09T12:19:09.164Z,60.00
2022-08-09T12:21:39.253Z,58.20
2022-08-09T12:24:22.348Z,58.80
2022-08-09T12:28:59.247Z,55.90
2022-08-09T12:29:52.487Z,57.80
2022-08-09T12:32:26.960Z,57.90
2022-08-09T12:35:04.595Z,59.40
2022-08-09T12:37:50.741Z,58.30
2022-08-09T12:40:21.048Z,58.70
2022-08-09T12:42:50.446Z,58.00
2022-08-09T12:45:34.471Z,58.70
2022-08-09T12:48:10.709Z,57.70
2022-08-09T12:50:47.849Z,54.90
2022-08-09T12:53:56.214Z,54.60
2022-08-09T12:56:39.597Z,56.20
2022-08-09T12:59:15.123Z,55.30
2022-08-09T13:01:49.103Z,56.80
2022-08-09T13:04:36.360Z,55.60
2022-08-09T13:07:19.610Z,56.50
2022-08-09T13:09:55.166Z,54.70
2022-08-09T13:12:30.265Z,54.60
2022-08-09T13:15:08.078Z,56.60
2022-08-09T13:17:58.792Z,56.20
2022-08-09T13:20:37.214Z,55.90
2022-08-09T13:24:17.050Z,57.50
2022-08-09T13:25:54.723Z,56.50
2022-08-09T13:28:33.837Z,57.80
2022-08-09T13:32:17.416Z,59.40
2022-08-09T13:33:58.874Z,56.70
2022-08-09T13:36:40.706Z,57.50
2022-08-09T13:41:46.434Z,55.00
2022-08-09T13:42:10.994Z,54.50
2022-08-09T13:44:42.120Z,53.70
2022-08-09T13:47:26.788Z,55.50
2022-08-09T13:50:01.415Z,53.50
2022-08-09T13:52:29.901Z,54.20
2022-08-09T13:55:00.935Z,53.20
2022-08-09T13:57:39.696Z,54.10
2022-08-09T14:00:28.335Z,55.50
2022-08-09T14:03:04.373Z,53.70
2022-08-09T14:05:59.218Z,54.10
2022-08-09T14:08:30.064Z,52.30
2022-08-09T14:10:57.323Z,51.70
2022-08-09T14:14:15.857Z,52.20
2022-08-09T14:16:15.092Z,54.60
2022-08-09T14:18:45.714Z,52.30
2022-08-09T14:21:17.955Z,53.20
2022-08-09T14:23:55.232Z,58.40
2022-08-09T14:26:30.262Z,56.50
2022-08-09T14:29:03.642Z,51.80
2022-08-09T14:31:49.842Z,53.90
2022-08-09T14:34:27.295Z,54.90
2022-08-09T14:37:06.147Z,54.50
2022-08-09T14:39:45.090Z,56.60
2022-08-09T14:42:30.166Z,58.00
2022-08-09T14:44:59.873Z,58.80
2022-08-09T14:47:45.338Z,57.10
2022-08-09T14:50:16.252Z,54.20
2022-08-09T14:52:49.989Z,54.30
2022-08-09T14:55:19.929Z,55.60
2022-08-09T14:57:47.710Z,55.30
2022-08-09T15:00:16.142Z,55.70
2022-08-09T15:02:42.873Z,55.30
2022-08-09T15:05:16.124Z,55.70
2022-08-09T15:07:45.403Z,54.00
2022-08-09T15:10:21.652Z,54.40
2022-08-09T15:12:52.345Z,55.10
2022-08-09T15:15:19.023Z,53.30
2022-08-09T15:17:51.778Z,53.90
2022-08-09T15:22:00.667Z,54.50
2022-08-09T15:23:55.883Z,54.40
2022-08-09T15:25:55.688Z,56.60
2022-08-09T15:28:28.509Z,54.70
2022-08-09T15:31:13.387Z,55.10
2022-08-09T15:34:17.440Z,56.50
2022-08-09T15:36:30.924Z,55.30
2022-08-09T15:38:58.813Z,55.70
2022-08-09T15:41:31.245Z,54.80
2022-08-09T15:44:02.601Z,57.00
2022-08-09T15:46:34.373Z,57.00
2022-08-09T15:49:22.627Z,57.30
2022-08-09T15:52:03.230Z,55.80
2022-08-09T15:54:52.664Z,56.20
2022-08-09T15:57:34.711Z,57.40
2022-08-09T16:00:14.795Z,58.10
2022-08-09T16:02:53.483Z,58.00
2022-08-09T16:05:23.645Z,59.10
2022-08-09T16:07:50.848Z,56.40
2022-08-09T16:10:55.030Z,55.90
2022-08-09T16:13:05.329Z,55.90
2022-08-09T16:16:11.826Z,55.70
2022-08-09T16:18:34.873Z,56.40
2022-08-09T16:21:01.457Z,56.50
2022-08-09T16:23:28.225Z,56.10
2022-08-09T16:26:00.796Z,56.80
2022-08-09T16:28:29.486Z,55.50
2022-08-09T16:30:59.367Z,56.80
2022-08-09T16:33:26.916Z,55.80
2022-08-09T16:35:58.133Z,55.60
2022-08-09T16:38:27.476Z,57.10
2022-08-09T16:40:54.498Z,58.10
2022-08-09T16:43:23.047Z,56.20
2022-08-09T16:45:53.391Z,55.30
2022-08-09T16:48:40.920Z,56.70
2022-08-09T16:51:13.632Z,56.10
2022-08-09T16:54:02.422Z,58.60
2022-08-09T16:56:30.778Z,56.20
2022-08-09T16:58:58.235Z,57.80
2022-08-09T17:01:25.780Z,56.70
2022-08-09T17:03:53.295Z,58.80
2022-08-09T17:06:31.898Z,57.50
2022-08-09T17:09:17.885Z,58.60
2022-08-09T17:11:51.380Z,57.80
2022-08-09T17:14:26.577Z,56.70
2022-08-09T17:16:55.946Z,59.10
2022-08-09T17:19:22.549Z,58.50
2022-08-09T17:21:54.437Z,56.90
2022-08-09T17:24:30.624Z,58.00
2022-08-09T17:26:58.183Z,57.30
2022-08-09T17:29:25.289Z,57.70
2022-08-09T17:32:00.814Z,56.80
2022-08-09T17:35:07.454Z,57.50
2022-08-09T17:37:19.598Z,60.20
2022-08-09T17:39:53.222Z,58.20
2022-08-09T17:42:41.485Z,59.90
2022-08-09T17:45:23.816Z,59.40
2022-08-09T17:48:02.603Z,58.40
2022-08-09T17:50:36.878Z,59.10
2022-08-09T17:53:19.275Z,59.60
2022-08-09T17:55:50.242Z,59.50
2022-08-09T17:58:18.959Z,60.10
2022-08-09T18:00:47.964Z,59.80
2022-08-09T18:03:15.386Z,60.50
2022-08-09T18:05:44.807Z,61.70
2022-08-09T18:08:13.321Z,60.80
2022-08-09T18:10:45.970Z,61.60
2022-08-09T18:13:43.191Z,62.40
2022-08-09T18:16:09.310Z,62.70
2022-08-09T18:18:36.334Z,61.60
2022-08-09T18:21:21.465Z,62.80
2022-08-09T18:24:11.543Z,62.70
2022-08-09T18:26:37.904Z,61.70
2022-08-09T18:30:40.621Z,63.40
2022-08-09T18:31:55.672Z,64.10
2022-08-09T18:34:23.901Z,64.30
2022-08-09T18:36:50.951Z,64.40
2022-08-09T18:39:22.175Z,64.40
2022-08-09T18:41:53.395Z,64.80
2022-08-09T18:44:26.564Z,64.30
2022-08-09T18:47:05.032Z,65.00
2022-08-09T18:49:43.448Z,64.60
2022-08-09T18:52:16.093Z,64.80
2022-08-09T18:54:52.182Z,65.40
2022-08-09T18:57:22.416Z,66.10
2022-08-09T18:59:55.080Z,65.90
2022-08-09T19:02:31.854Z,64.80
2022-08-09T19:05:19.747Z,64.50
2022-08-09T19:08:04.298Z,65.30
2022-08-09T19:10:39.360Z,64.90
2022-08-09T19:13:22.235Z,65.50
2022-08-09T19:15:51.277Z,65.00
2022-08-09T19:18:33.367Z,65.40
2022-08-09T19:21:03.324Z,64.10
2022-08-09T19:24:35.889Z,64.40
2022-08-09T19:26:19.392Z,65.30
2022-08-09T19:29:01.350Z,65.20
2022-08-09T19:31:30.518Z,65.20
2022-08-09T19:34:21.370Z,66.20
2022-08-09T19:36:50.877Z,65.80
2022-08-09T19:39:17.574Z,65.80
2022-08-09T19:41:48.559Z,66.60
2022-08-09T19:44:17.682Z,66.40
2022-08-09T19:46:49.329Z,65.50
2022-08-09T19:50:06.678Z,65.80
2022-08-09T19:52:04.664Z,66.20
2022-08-09T19:54:31.437Z,67.90
2022-08-09T19:56:58.959Z,66.80
2022-08-09T19:59:57.452Z,68.60
2022-08-09T20:04:07.235Z,66.20
2022-08-09T20:05:10.299Z,66.60
2022-08-09T20:07:59.545Z,66.60
2022-08-09T20:10:36.888Z,67.20
2022-08-09T20:13:05.523Z,67.40
2022-08-09T20:16:35.104Z,67.80
2022-08-09T20:18:20.201Z,68.20
2022-08-09T20:20:51.014Z,68.30
2022-08-09T20:23:19.379Z,68.90
2022-08-09T20:25:52.079Z,68.30
2022-08-09T20:28:27.542Z,67.90
2022-08-09T20:31:02.644Z,68.80
2022-08-09T20:33:38.980Z,68.20
2022-08-09T20:36:10.642Z,69.20
2022-08-09T20:41:35.003Z,68.40
2022-08-09T20:44:02.589Z,68.50
2022-08-09T20:46:43.374Z,67.70
2022-08-09T20:49:16.104Z,68.10
2022-08-09T20:51:50.717Z,69.60
2022-08-09T20:54:18.112Z,68.50
2022-08-09T20:56:46.818Z,69.50
2022-08-09T20:59:17.098Z,69.90
2022-08-09T21:01:49.818Z,69.50
2022-08-09T21:05:52.594Z,69.80
2022-08-09T21:07:11.360Z,70.90
2022-08-09T21:09:45.730Z,70.10
2022-08-09T21:14:48.403Z,71.00
2022-08-09T21:18:11.942Z,71.30
2022-08-09T21:20:18.782Z,70.70
2022-08-09T21:22:53.854Z,71.50
2022-08-09T21:25:44.185Z,71.20
2022-08-09T21:28:33.290Z,71.30
2022-08-09T21:31:16.440Z,71.70
2022-08-09T21:33:45.970Z,72.20
2022-08-09T21:36:18.087Z,71.90
2022-08-09T21:38:45.609Z,71.40
2022-08-09T21:41:17.744Z,71.40
2022-08-09T21:43:57.552Z,72.10
2022-08-09T21:46:24.926Z,71.60
2022-08-09T21:48:52.237Z,71.70
2022-08-09T21:51:24.431Z,72.50
2022-08-09T21:54:03.171Z,71.40
2022-08-09T21:56:43.043Z,71.80
2022-08-09T21:59:11.623Z,71.50
2022-08-09T22:01:59.361Z,72.30
2022-08-09T22:04:57.363Z,72.10
2022-08-09T22:07:35.341Z,71.90
2022-08-09T22:10:05.273Z,72.10
2022-08-09T22:12:32.174Z,72.50
2022-08-09T22:14:59.139Z,72.50
2022-08-09T22:17:27.656Z,72.80
2022-08-09T22:20:00.625Z,72.60
2022-08-09T22:22:29.104Z,74.90
2022-08-09T22:26:07.646Z,73.00
2022-08-09T22:27:42.413Z,73.00
2022-08-09T22:30:10.156Z,73.50
2022-08-09T22:32:37.432Z,73.60
2022-08-09T22:35:06.889Z,74.00
2022-08-09T22:38:06.669Z,73.40
2022-08-09T22:40:35.001Z,74.00
2022-08-09T22:43:16.113Z,74.10
2022-08-09T22:48:15.375Z,74.30
2022-08-09T22:48:36.518Z,74.40
2022-08-09T22:51:10.688Z,74.50
2022-08-09T22:54:01.082Z,75.10
2022-08-09T22:56:33.276Z,74.90
2022-08-09T22:59:05.815Z,75.30
2022-08-09T23:01:48.588Z,75.30
2022-08-09T23:04:15.286Z,75.60
2022-08-09T23:07:02.388Z,75.80
2022-08-09T23:09:28.970Z,76.20
2022-08-09T23:11:55.774Z,76.40
2022-08-09T23:14:37.379Z,75.90
2022-08-09T23:17:09.188Z,76.80
2022-08-09T23:20:06.389Z,76.90
2022-08-09T23:22:22.399Z,77.80
2022-08-09T23:24:49.253Z,77.60
2022-08-09T23:27:16.053Z,77.60
2022-08-09T23:29:42.849Z,78.20
2022-08-09T23:32:09.501Z,78.40
2022-08-09T23:34:36.683Z,78.80
2022-08-09T23:37:04.268Z,78.80
2022-08-09T23:39:30.947Z,79.50
2022-08-09T23:41:57.539Z,79.50
2022-08-09T23:44:24.145Z,80.00
2022-08-09T23:46:56.049Z,80.10
2022-08-09T23:49:25.154Z,79.30
2022-08-09T23:51:52.925Z,80.70
2022-08-09T23:54:19.934Z,81.20
2022-08-09T23:56:54.295Z,80.10
2022-08-09T23:59:23.107Z,81.20
